sensor_id;sensor_type;location;lat;lon;timestamp;P1;durP1;ratioP1;P2;durP2;ratioP2
20669;SDS011;10494;50.868;4.180;2023-07-22T00:01:37;18.85;;;10.63;;
20669;SDS011;10494;50.868;4.180;2023-07-22T00:04:03;18.23;;;10.23;;
20669;SDS011;10494;50.868;4.180;2023-07-22T00:06:29;15.48;;;9.75;;
20669;SDS011;10494;50.868;4.180;2023-07-22T00:08:55;15.10;;;9.68;;
20669;SDS011;10494;50.868;4.180;2023-07-22T00:11:20;14.80;;;9.05;;
20669;SDS011;10494;50.868;4.180;2023-07-22T00:13:46;16.55;;;9.90;;
20669;SDS011;10494;50.868;4.180;2023-07-22T00:16:12;12.90;;;8.93;;
20669;SDS011;10494;50.868;4.180;2023-07-22T00:18:37;14.40;;;9.57;;
20669;SDS011;10494;50.868;4.180;2023-07-22T00:21:03;17.52;;;9.73;;
20669;SDS011;10494;50.868;4.180;2023-07-22T00:23:29;15.50;;;9.02;;
20669;SDS011;10494;50.868;4.180;2023-07-22T00:25:55;14.70;;;9.05;;
20669;SDS011;10494;50.868;4.180;2023-07-22T00:28:20;15.93;;;9.75;;
20669;SDS011;10494;50.868;4.180;2023-07-22T00:30:46;15.30;;;9.30;;
20669;SDS011;10494;50.868;4.180;2023-07-22T00:33:14;16.33;;;8.63;;
20669;SDS011;10494;50.868;4.180;2023-07-22T00:35:39;15.80;;;9.73;;
20669;SDS011;10494;50.868;4.180;2023-07-22T00:38:05;13.88;;;9.15;;
20669;SDS011;10494;50.868;4.180;2023-07-22T00:40:31;20.75;;;9.77;;
20669;SDS011;10494;50.868;4.180;2023-07-22T00:42:59;15.63;;;9.18;;
20669;SDS011;10494;50.868;4.180;2023-07-22T00:45:25;14.45;;;9.23;;
20669;SDS011;10494;50.868;4.180;2023-07-22T00:47:50;15.98;;;9.85;;
20669;SDS011;10494;50.868;4.180;2023-07-22T00:50:16;16.80;;;9.10;;
20669;SDS011;10494;50.868;4.180;2023-07-22T00:52:42;20.33;;;9.77;;
20669;SDS011;10494;50.868;4.180;2023-07-22T00:55:08;15.40;;;10.15;;
20669;SDS011;10494;50.868;4.180;2023-07-22T00:57:34;16.73;;;9.88;;
20669;SDS011;10494;50.868;4.180;2023-07-22T01:00:01;16.77;;;10.02;;
20669;SDS011;10494;50.868;4.180;2023-07-22T01:02:27;18.92;;;10.73;;
20669;SDS011;10494;50.868;4.180;2023-07-22T01:04:54;18.50;;;10.20;;
20669;SDS011;10494;50.868;4.180;2023-07-22T01:07:19;18.80;;;9.85;;
20669;SDS011;10494;50.868;4.180;2023-07-22T01:09:45;16.63;;;9.65;;
20669;SDS011;10494;50.868;4.180;2023-07-22T01:12:11;15.30;;;10.20;;
20669;SDS011;10494;50.868;4.180;2023-07-22T01:14:37;19.67;;;10.13;;
20669;SDS011;10494;50.868;4.180;2023-07-22T01:17:05;17.35;;;9.65;;
20669;SDS011;10494;50.868;4.180;2023-07-22T01:19:32;18.13;;;9.15;;
20669;SDS011;10494;50.868;4.180;2023-07-22T01:22:02;16.88;;;9.70;;
20669;SDS011;10494;50.868;4.180;2023-07-22T01:24:29;17.67;;;10.48;;
20669;SDS011;10494;50.868;4.180;2023-07-22T01:26:55;25.20;;;10.27;;
20669;SDS011;10494;50.868;4.180;2023-07-22T01:29:22;20.70;;;10.00;;
20669;SDS011;10494;50.868;4.180;2023-07-22T01:31:50;17.52;;;10.05;;
20669;SDS011;10494;50.868;4.180;2023-07-22T01:34:17;24.50;;;10.73;;
20669;SDS011;10494;50.868;4.180;2023-07-22T01:36:44;18.00;;;10.60;;
20669;SDS011;10494;50.868;4.180;2023-07-22T01:39:11;18.92;;;10.48;;
20669;SDS011;10494;50.868;4.180;2023-07-22T01:41:36;15.70;;;10.23;;
20669;SDS011;10494;50.868;4.180;2023-07-22T01:44:02;15.55;;;10.15;;
20669;SDS011;10494;50.868;4.180;2023-07-22T01:46:28;17.27;;;10.57;;
20669;SDS011;10494;50.868;4.180;2023-07-22T01:48:55;17.08;;;10.30;;
20669;SDS011;10494;50.868;4.180;2023-07-22T01:51:21;17.50;;;11.10;;
20669;SDS011;10494;50.868;4.180;2023-07-22T01:53:46;20.55;;;11.00;;
20669;SDS011;10494;50.868;4.180;2023-07-22T01:56:12;17.17;;;10.95;;
20669;SDS011;10494;50.868;4.180;2023-07-22T01:58:38;21.35;;;10.68;;
20669;SDS011;10494;50.868;4.180;2023-07-22T02:01:04;17.30;;;10.57;;
20669;SDS011;10494;50.868;4.180;2023-07-22T02:03:29;21.90;;;11.13;;
20669;SDS011;10494;50.868;4.180;2023-07-22T02:06:03;20.58;;;10.93;;
20669;SDS011;10494;50.868;4.180;2023-07-22T02:08:29;17.83;;;10.55;;
20669;SDS011;10494;50.868;4.180;2023-07-22T02:10:56;23.75;;;10.68;;
20669;SDS011;10494;50.868;4.180;2023-07-22T02:13:34;18.35;;;10.75;;
20669;SDS011;10494;50.868;4.180;2023-07-22T02:16:00;20.30;;;10.80;;
20669;SDS011;10494;50.868;4.180;2023-07-22T02:18:27;16.95;;;10.75;;
20669;SDS011;10494;50.868;4.180;2023-07-22T02:20:52;20.25;;;10.80;;
20669;SDS011;10494;50.868;4.180;2023-07-22T02:23:19;19.38;;;10.30;;
20669;SDS011;10494;50.868;4.180;2023-07-22T02:25:48;19.05;;;10.18;;
20669;SDS011;10494;50.868;4.180;2023-07-22T02:28:14;16.00;;;10.15;;
20669;SDS011;10494;50.868;4.180;2023-07-22T02:30:40;17.73;;;11.02;;
20669;SDS011;10494;50.868;4.180;2023-07-22T02:33:06;19.38;;;10.10;;
20669;SDS011;10494;50.868;4.180;2023-07-22T02:35:33;19.98;;;11.10;;
20669;SDS011;10494;50.868;4.180;2023-07-22T02:37:58;23.75;;;11.13;;
20669;SDS011;10494;50.868;4.180;2023-07-22T02:40:24;22.17;;;12.25;;
20669;SDS011;10494;50.868;4.180;2023-07-22T02:42:50;19.40;;;10.85;;
20669;SDS011;10494;50.868;4.180;2023-07-22T02:45:16;16.25;;;11.10;;
20669;SDS011;10494;50.868;4.180;2023-07-22T02:47:41;23.20;;;11.88;;
20669;SDS011;10494;50.868;4.180;2023-07-22T02:50:07;18.45;;;11.20;;
20669;SDS011;10494;50.868;4.180;2023-07-22T02:52:33;20.17;;;11.93;;
20669;SDS011;10494;50.868;4.180;2023-07-22T02:55:10;23.80;;;11.80;;
20669;SDS011;10494;50.868;4.180;2023-07-22T02:57:37;22.05;;;11.85;;
20669;SDS011;10494;50.868;4.180;2023-07-22T03:00:04;21.38;;;11.40;;
20669;SDS011;10494;50.868;4.180;2023-07-22T03:02:34;23.27;;;11.68;;
20669;SDS011;10494;50.868;4.180;2023-07-22T03:05:00;19.40;;;10.98;;
20669;SDS011;10494;50.868;4.180;2023-07-22T03:07:27;24.88;;;11.43;;
20669;SDS011;10494;50.868;4.180;2023-07-22T03:09:53;22.65;;;12.55;;
20669;SDS011;10494;50.868;4.180;2023-07-22T03:12:19;25.73;;;12.25;;
20669;SDS011;10494;50.868;4.180;2023-07-22T03:14:44;21.10;;;12.20;;
20669;SDS011;10494;50.868;4.180;2023-07-22T03:17:10;24.40;;;12.10;;
20669;SDS011;10494;50.868;4.180;2023-07-22T03:19:39;23.23;;;12.77;;
20669;SDS011;10494;50.868;4.180;2023-07-22T03:22:05;24.73;;;12.27;;
20669;SDS011;10494;50.868;4.180;2023-07-22T03:24:31;25.60;;;11.95;;
20669;SDS011;10494;50.868;4.180;2023-07-22T03:26:56;28.08;;;13.25;;
20669;SDS011;10494;50.868;4.180;2023-07-22T03:29:22;25.52;;;12.48;;
20669;SDS011;10494;50.868;4.180;2023-07-22T03:31:49;26.88;;;11.88;;
20669;SDS011;10494;50.868;4.180;2023-07-22T03:34:15;21.67;;;11.75;;
20669;SDS011;10494;50.868;4.180;2023-07-22T03:36:40;28.13;;;13.13;;
20669;SDS011;10494;50.868;4.180;2023-07-22T03:39:06;25.98;;;11.77;;
20669;SDS011;10494;50.868;4.180;2023-07-22T03:41:31;26.65;;;12.82;;
20669;SDS011;10494;50.868;4.180;2023-07-22T03:43:57;23.25;;;12.60;;
20669;SDS011;10494;50.868;4.180;2023-07-22T03:46:22;26.98;;;12.70;;
20669;SDS011;10494;50.868;4.180;2023-07-22T03:48:48;25.98;;;12.68;;
20669;SDS011;10494;50.868;4.180;2023-07-22T03:51:14;23.77;;;13.60;;
20669;SDS011;10494;50.868;4.180;2023-07-22T03:53:39;21.85;;;12.35;;
20669;SDS011;10494;50.868;4.180;2023-07-22T03:56:05;27.65;;;12.77;;
20669;SDS011;10494;50.868;4.180;2023-07-22T03:58:30;29.17;;;12.95;;
20669;SDS011;10494;50.868;4.180;2023-07-22T04:00:56;26.85;;;12.75;;
20669;SDS011;10494;50.868;4.180;2023-07-22T04:03:22;26.00;;;13.43;;
20669;SDS011;10494;50.868;4.180;2023-07-22T04:05:54;27.58;;;12.77;;
20669;SDS011;10494;50.868;4.180;2023-07-22T04:08:20;24.90;;;12.35;;
20669;SDS011;10494;50.868;4.180;2023-07-22T04:10:52;28.73;;;12.38;;
20669;SDS011;10494;50.868;4.180;2023-07-22T04:13:22;24.77;;;13.05;;
20669;SDS011;10494;50.868;4.180;2023-07-22T04:15:49;25.15;;;12.25;;
20669;SDS011;10494;50.868;4.180;2023-07-22T04:18:16;27.67;;;12.57;;
20669;SDS011;10494;50.868;4.180;2023-07-22T04:20:42;28.23;;;13.07;;
20669;SDS011;10494;50.868;4.180;2023-07-22T04:23:08;22.42;;;12.88;;
20669;SDS011;10494;50.868;4.180;2023-07-22T04:25:41;25.48;;;13.60;;
20669;SDS011;10494;50.868;4.180;2023-07-22T04:28:07;29.13;;;13.57;;
20669;SDS011;10494;50.868;4.180;2023-07-22T04:30:34;26.98;;;12.70;;
20669;SDS011;10494;50.868;4.180;2023-07-22T04:33:00;22.42;;;13.38;;
20669;SDS011;10494;50.868;4.180;2023-07-22T04:35:26;32.60;;;13.95;;
20669;SDS011;10494;50.868;4.180;2023-07-22T04:37:52;30.42;;;13.82;;
20669;SDS011;10494;50.868;4.180;2023-07-22T04:40:18;22.65;;;12.13;;
20669;SDS011;10494;50.868;4.180;2023-07-22T04:42:44;24.45;;;12.45;;
20669;SDS011;10494;50.868;4.180;2023-07-22T04:45:11;31.33;;;13.13;;
20669;SDS011;10494;50.868;4.180;2023-07-22T04:47:39;28.50;;;14.10;;
20669;SDS011;10494;50.868;4.180;2023-07-22T04:50:06;25.98;;;13.30;;
20669;SDS011;10494;50.868;4.180;2023-07-22T04:52:34;23.55;;;12.38;;
20669;SDS011;10494;50.868;4.180;2023-07-22T04:55:01;25.25;;;11.98;;
20669;SDS011;10494;50.868;4.180;2023-07-22T04:57:33;28.27;;;12.70;;
20669;SDS011;10494;50.868;4.180;2023-07-22T05:00:03;23.60;;;12.00;;
20669;SDS011;10494;50.868;4.180;2023-07-22T05:02:30;26.67;;;12.48;;
20669;SDS011;10494;50.868;4.180;2023-07-22T05:04:56;23.23;;;11.38;;
20669;SDS011;10494;50.868;4.180;2023-07-22T05:07:23;24.77;;;12.20;;
20669;SDS011;10494;50.868;4.180;2023-07-22T05:09:49;27.30;;;13.32;;
20669;SDS011;10494;50.868;4.180;2023-07-22T05:12:16;22.98;;;12.80;;
20669;SDS011;10494;50.868;4.180;2023-07-22T05:14:42;24.30;;;12.27;;
20669;SDS011;10494;50.868;4.180;2023-07-22T05:17:07;25.30;;;11.63;;
20669;SDS011;10494;50.868;4.180;2023-07-22T05:19:33;25.85;;;12.00;;
20669;SDS011;10494;50.868;4.180;2023-07-22T05:21:59;26.27;;;12.43;;
20669;SDS011;10494;50.868;4.180;2023-07-22T05:24:24;25.40;;;12.25;;
20669;SDS011;10494;50.868;4.180;2023-07-22T05:26:50;25.70;;;11.80;;
20669;SDS011;10494;50.868;4.180;2023-07-22T05:29:15;21.30;;;12.50;;
20669;SDS011;10494;50.868;4.180;2023-07-22T05:31:42;26.30;;;12.77;;
20669;SDS011;10494;50.868;4.180;2023-07-22T05:34:07;17.23;;;11.10;;
20669;SDS011;10494;50.868;4.180;2023-07-22T05:36:33;19.33;;;11.07;;
20669;SDS011;10494;50.868;4.180;2023-07-22T05:38:59;19.13;;;10.70;;
20669;SDS011;10494;50.868;4.180;2023-07-22T05:41:25;19.58;;;10.75;;
20669;SDS011;10494;50.868;4.180;2023-07-22T05:43:51;25.60;;;10.73;;
20669;SDS011;10494;50.868;4.180;2023-07-22T05:46:17;20.27;;;11.27;;
20669;SDS011;10494;50.868;4.180;2023-07-22T05:48:42;28.23;;;10.23;;
20669;SDS011;10494;50.868;4.180;2023-07-22T05:51:09;25.83;;;10.02;;
20669;SDS011;10494;50.868;4.180;2023-07-22T05:53:34;18.73;;;9.88;;
20669;SDS011;10494;50.868;4.180;2023-07-22T05:56:00;17.25;;;9.45;;
20669;SDS011;10494;50.868;4.180;2023-07-22T05:58:25;20.92;;;9.73;;
20669;SDS011;10494;50.868;4.180;2023-07-22T06:00:52;17.48;;;9.68;;
20669;SDS011;10494;50.868;4.180;2023-07-22T06:03:19;22.27;;;9.73;;
20669;SDS011;10494;50.868;4.180;2023-07-22T06:05:46;17.35;;;9.20;;
20669;SDS011;10494;50.868;4.180;2023-07-22T06:08:11;14.65;;;8.73;;
20669;SDS011;10494;50.868;4.180;2023-07-22T06:10:37;16.63;;;9.57;;
20669;SDS011;10494;50.868;4.180;2023-07-22T06:13:03;19.83;;;9.35;;
20669;SDS011;10494;50.868;4.180;2023-07-22T06:15:29;16.65;;;8.52;;
20669;SDS011;10494;50.868;4.180;2023-07-22T06:17:55;18.60;;;9.15;;
20669;SDS011;10494;50.868;4.180;2023-07-22T06:20:20;18.05;;;8.48;;
20669;SDS011;10494;50.868;4.180;2023-07-22T06:22:46;18.00;;;8.60;;
20669;SDS011;10494;50.868;4.180;2023-07-22T06:25:12;18.65;;;8.48;;
20669;SDS011;10494;50.868;4.180;2023-07-22T06:27:37;14.85;;;7.65;;
20669;SDS011;10494;50.868;4.180;2023-07-22T06:30:03;18.00;;;7.72;;
20669;SDS011;10494;50.868;4.180;2023-07-22T06:32:29;19.65;;;8.30;;
20669;SDS011;10494;50.868;4.180;2023-07-22T06:34:56;16.15;;;8.25;;
20669;SDS011;10494;50.868;4.180;2023-07-22T06:37:22;14.75;;;8.15;;
20669;SDS011;10494;50.868;4.180;2023-07-22T06:39:48;17.30;;;7.90;;
20669;SDS011;10494;50.868;4.180;2023-07-22T06:42:14;14.00;;;7.57;;
20669;SDS011;10494;50.868;4.180;2023-07-22T06:44:39;15.40;;;8.98;;
20669;SDS011;10494;50.868;4.180;2023-07-22T06:47:05;14.27;;;7.22;;
20669;SDS011;10494;50.868;4.180;2023-07-22T06:49:31;13.00;;;7.68;;
20669;SDS011;10494;50.868;4.180;2023-07-22T06:51:57;16.70;;;7.95;;
20669;SDS011;10494;50.868;4.180;2023-07-22T06:54:23;15.57;;;6.95;;
20669;SDS011;10494;50.868;4.180;2023-07-22T06:56:48;11.18;;;6.68;;
20669;SDS011;10494;50.868;4.180;2023-07-22T06:59:14;17.77;;;7.97;;
20669;SDS011;10494;50.868;4.180;2023-07-22T07:01:39;16.50;;;6.63;;
20669;SDS011;10494;50.868;4.180;2023-07-22T07:04:06;14.93;;;6.80;;
20669;SDS011;10494;50.868;4.180;2023-07-22T07:06:31;16.58;;;7.15;;
20669;SDS011;10494;50.868;4.180;2023-07-22T07:08:59;19.55;;;7.32;;
20669;SDS011;10494;50.868;4.180;2023-07-22T07:11:25;20.65;;;6.90;;
20669;SDS011;10494;50.868;4.180;2023-07-22T07:13:51;14.23;;;6.55;;
20669;SDS011;10494;50.868;4.180;2023-07-22T07:18:48;13.77;;;7.60;;
20669;SDS011;10494;50.868;4.180;2023-07-22T07:21:14;15.75;;;6.63;;
20669;SDS011;10494;50.868;4.180;2023-07-22T07:23:40;12.90;;;6.75;;
20669;SDS011;10494;50.868;4.180;2023-07-22T07:26:05;14.38;;;7.22;;
20669;SDS011;10494;50.868;4.180;2023-07-22T07:28:31;14.13;;;6.75;;
20669;SDS011;10494;50.868;4.180;2023-07-22T07:30:57;15.60;;;7.32;;
20669;SDS011;10494;50.868;4.180;2023-07-22T07:33:22;16.23;;;7.15;;
20669;SDS011;10494;50.868;4.180;2023-07-22T07:35:48;16.73;;;7.00;;
20669;SDS011;10494;50.868;4.180;2023-07-22T07:38:14;13.65;;;6.47;;
20669;SDS011;10494;50.868;4.180;2023-07-22T07:40:39;16.80;;;6.53;;
20669;SDS011;10494;50.868;4.180;2023-07-22T07:43:05;13.25;;;6.50;;
20669;SDS011;10494;50.868;4.180;2023-07-22T07:45:30;16.90;;;7.47;;
20669;SDS011;10494;50.868;4.180;2023-07-22T07:47:56;16.20;;;6.88;;
20669;SDS011;10494;50.868;4.180;2023-07-22T07:50:22;16.40;;;7.25;;
20669;SDS011;10494;50.868;4.180;2023-07-22T07:52:47;13.63;;;6.30;;
20669;SDS011;10494;50.868;4.180;2023-07-22T07:55:13;14.63;;;6.80;;
20669;SDS011;10494;50.868;4.180;2023-07-22T07:57:38;12.02;;;6.25;;
20669;SDS011;10494;50.868;4.180;2023-07-22T08:00:04;16.70;;;6.25;;
20669;SDS011;10494;50.868;4.180;2023-07-22T08:02:32;13.45;;;6.20;;
20669;SDS011;10494;50.868;4.180;2023-07-22T08:04:58;12.60;;;5.38;;
20669;SDS011;10494;50.868;4.180;2023-07-22T08:07:24;9.85;;;5.63;;
20669;SDS011;10494;50.868;4.180;2023-07-22T08:09:49;13.45;;;5.68;;
20669;SDS011;10494;50.868;4.180;2023-07-22T08:12:15;10.20;;;5.40;;
20669;SDS011;10494;50.868;4.180;2023-07-22T08:14:40;11.75;;;5.07;;
20669;SDS011;10494;50.868;4.180;2023-07-22T08:17:06;10.40;;;5.55;;
20669;SDS011;10494;50.868;4.180;2023-07-22T08:19:32;11.75;;;5.22;;
20669;SDS011;10494;50.868;4.180;2023-07-22T08:21:58;14.07;;;4.88;;
20669;SDS011;10494;50.868;4.180;2023-07-22T08:24:23;9.63;;;5.03;;
20669;SDS011;10494;50.868;4.180;2023-07-22T08:26:49;13.63;;;5.03;;
20669;SDS011;10494;50.868;4.180;2023-07-22T08:29:14;23.55;;;5.97;;
20669;SDS011;10494;50.868;4.180;2023-07-22T08:31:40;12.00;;;5.50;;
20669;SDS011;10494;50.868;4.180;2023-07-22T08:34:05;13.38;;;4.60;;
20669;SDS011;10494;50.868;4.180;2023-07-22T08:36:31;9.27;;;4.35;;
20669;SDS011;10494;50.868;4.180;2023-07-22T08:38:56;14.52;;;4.53;;
20669;SDS011;10494;50.868;4.180;2023-07-22T08:41:22;16.58;;;4.95;;
20669;SDS011;10494;50.868;4.180;2023-07-22T08:43:50;11.63;;;4.60;;
20669;SDS011;10494;50.868;4.180;2023-07-22T08:46:17;13.35;;;4.07;;
20669;SDS011;10494;50.868;4.180;2023-07-22T08:48:46;8.52;;;3.97;;
20669;SDS011;10494;50.868;4.180;2023-07-22T08:51:15;8.05;;;3.70;;
20669;SDS011;10494;50.868;4.180;2023-07-22T08:53:43;9.88;;;3.30;;
20669;SDS011;10494;50.868;4.180;2023-07-22T08:56:09;7.03;;;3.78;;
20669;SDS011;10494;50.868;4.180;2023-07-22T08:58:35;9.05;;;3.30;;
20669;SDS011;10494;50.868;4.180;2023-07-22T09:01:02;5.68;;;2.80;;
20669;SDS011;10494;50.868;4.180;2023-07-22T09:03:28;7.43;;;3.47;;
20669;SDS011;10494;50.868;4.180;2023-07-22T09:05:54;7.43;;;3.30;;
20669;SDS011;10494;50.868;4.180;2023-07-22T09:08:21;6.15;;;3.20;;
20669;SDS011;10494;50.868;4.180;2023-07-22T09:10:47;7.32;;;2.85;;
20669;SDS011;10494;50.868;4.180;2023-07-22T09:13:13;9.10;;;2.70;;
20669;SDS011;10494;50.868;4.180;2023-07-22T09:15:40;8.02;;;2.95;;
20669;SDS011;10494;50.868;4.180;2023-07-22T09:18:06;10.63;;;2.58;;
20669;SDS011;10494;50.868;4.180;2023-07-22T09:20:32;8.30;;;2.75;;
20669;SDS011;10494;50.868;4.180;2023-07-22T09:22:59;8.00;;;2.42;;
20669;SDS011;10494;50.868;4.180;2023-07-22T09:25:26;8.32;;;2.60;;
20669;SDS011;10494;50.868;4.180;2023-07-22T09:27:53;6.20;;;2.05;;
20669;SDS011;10494;50.868;4.180;2023-07-22T09:32:57;5.25;;;2.10;;
20669;SDS011;10494;50.868;4.180;2023-07-22T09:35:30;4.88;;;1.73;;
20669;SDS011;10494;50.868;4.180;2023-07-22T09:38:23;5.88;;;1.75;;
20669;SDS011;10494;50.868;4.180;2023-07-22T09:40:49;5.63;;;2.30;;
20669;SDS011;10494;50.868;4.180;2023-07-22T09:43:16;6.53;;;2.00;;
20669;SDS011;10494;50.868;4.180;2023-07-22T09:45:41;9.80;;;2.42;;
20669;SDS011;10494;50.868;4.180;2023-07-22T09:48:11;3.65;;;1.88;;
20669;SDS011;10494;50.868;4.180;2023-07-22T09:50:36;4.10;;;1.60;;
20669;SDS011;10494;50.868;4.180;2023-07-22T09:53:03;4.57;;;1.73;;
20669;SDS011;10494;50.868;4.180;2023-07-22T09:55:30;4.15;;;1.75;;
20669;SDS011;10494;50.868;4.180;2023-07-22T09:58:01;6.78;;;1.83;;
20669;SDS011;10494;50.868;4.180;2023-07-22T10:00:28;3.33;;;1.80;;
20669;SDS011;10494;50.868;4.180;2023-07-22T10:02:59;3.45;;;1.90;;
20669;SDS011;10494;50.868;4.180;2023-07-22T10:05:26;6.57;;;2.08;;
20669;SDS011;10494;50.868;4.180;2023-07-22T10:07:53;4.00;;;1.60;;
20669;SDS011;10494;50.868;4.180;2023-07-22T10:10:20;4.63;;;1.65;;
20669;SDS011;10494;50.868;4.180;2023-07-22T10:12:59;4.35;;;1.60;;
20669;SDS011;10494;50.868;4.180;2023-07-22T10:15:27;5.85;;;1.40;;
20669;SDS011;10494;50.868;4.180;2023-07-22T10:17:55;3.88;;;1.40;;
20669;SDS011;10494;50.868;4.180;2023-07-22T10:20:21;3.13;;;1.45;;
20669;SDS011;10494;50.868;4.180;2023-07-22T10:22:48;2.45;;;1.40;;
20669;SDS011;10494;50.868;4.180;2023-07-22T10:25:15;2.85;;;1.58;;
20669;SDS011;10494;50.868;4.180;2023-07-22T10:27:42;2.20;;;1.63;;
20669;SDS011;10494;50.868;4.180;2023-07-22T10:30:09;5.43;;;1.45;;
20669;SDS011;10494;50.868;4.180;2023-07-22T10:32:45;3.15;;;1.52;;
20669;SDS011;10494;50.868;4.180;2023-07-22T10:38:09;3.83;;;1.88;;
20669;SDS011;10494;50.868;4.180;2023-07-22T10:40:46;9.43;;;2.13;;
20669;SDS011;10494;50.868;4.180;2023-07-22T10:43:24;5.85;;;1.70;;
20669;SDS011;10494;50.868;4.180;2023-07-22T10:45:55;6.65;;;1.90;;
20669;SDS011;10494;50.868;4.180;2023-07-22T10:48:23;3.38;;;1.35;;
20669;SDS011;10494;50.868;4.180;2023-07-22T10:50:54;3.28;;;1.98;;
20669;SDS011;10494;50.868;4.180;2023-07-22T10:56:14;2.50;;;1.73;;
20669;SDS011;10494;50.868;4.180;2023-07-22T10:58:59;5.63;;;1.80;;
20669;SDS011;10494;50.868;4.180;2023-07-22T11:04:11;6.93;;;1.73;;
20669;SDS011;10494;50.868;4.180;2023-07-22T11:07:02;5.63;;;2.13;;
20669;SDS011;10494;50.868;4.180;2023-07-22T11:12:14;3.28;;;1.67;;
20669;SDS011;10494;50.868;4.180;2023-07-22T11:14:52;3.40;;;1.38;;
20669;SDS011;10494;50.868;4.180;2023-07-22T11:17:28;2.38;;;1.70;;
20669;SDS011;10494;50.868;4.180;2023-07-22T11:19:56;3.35;;;1.58;;
20669;SDS011;10494;50.868;4.180;2023-07-22T11:22:22;6.65;;;1.60;;
20669;SDS011;10494;50.868;4.180;2023-07-22T11:24:47;4.00;;;1.67;;
20669;SDS011;10494;50.868;4.180;2023-07-22T11:27:13;3.78;;;2.00;;
20669;SDS011;10494;50.868;4.180;2023-07-22T11:29:39;2.97;;;1.70;;
20669;SDS011;10494;50.868;4.180;2023-07-22T11:32:05;5.82;;;2.10;;
20669;SDS011;10494;50.868;4.180;2023-07-22T11:34:32;3.45;;;1.80;;
20669;SDS011;10494;50.868;4.180;2023-07-22T11:36:58;3.60;;;1.80;;
20669;SDS011;10494;50.868;4.180;2023-07-22T11:39:24;4.35;;;1.33;;
20669;SDS011;10494;50.868;4.180;2023-07-22T11:41:51;6.28;;;1.95;;
20669;SDS011;10494;50.868;4.180;2023-07-22T11:44:19;6.25;;;1.50;;
20669;SDS011;10494;50.868;4.180;2023-07-22T11:49:24;2.13;;;1.50;;
20669;SDS011;10494;50.868;4.180;2023-07-22T11:51:58;2.05;;;1.42;;
20669;SDS011;10494;50.868;4.180;2023-07-22T11:54:36;2.33;;;1.70;;
20669;SDS011;10494;50.868;4.180;2023-07-22T11:57:16;2.33;;;1.60;;
20669;SDS011;10494;50.868;4.180;2023-07-22T11:59:49;2.63;;;1.50;;
20669;SDS011;10494;50.868;4.180;2023-07-22T12:02:17;2.95;;;1.70;;
20669;SDS011;10494;50.868;4.180;2023-07-22T12:04:53;3.95;;;1.58;;
20669;SDS011;10494;50.868;4.180;2023-07-22T12:09:56;2.72;;;1.70;;
20669;SDS011;10494;50.868;4.180;2023-07-22T12:12:32;3.05;;;1.60;;
20669;SDS011;10494;50.868;4.180;2023-07-22T12:15:03;4.45;;;1.50;;
20669;SDS011;10494;50.868;4.180;2023-07-22T12:17:29;5.38;;;1.63;;
20669;SDS011;10494;50.868;4.180;2023-07-22T12:20:08;2.70;;;2.03;;
20669;SDS011;10494;50.868;4.180;2023-07-22T12:22:34;3.67;;;1.70;;
20669;SDS011;10494;50.868;4.180;2023-07-22T12:24:59;6.10;;;1.90;;
20669;SDS011;10494;50.868;4.180;2023-07-22T12:27:25;4.20;;;1.63;;
20669;SDS011;10494;50.868;4.180;2023-07-22T12:29:50;3.17;;;1.70;;
20669;SDS011;10494;50.868;4.180;2023-07-22T12:32:16;3.78;;;1.88;;
20669;SDS011;10494;50.868;4.180;2023-07-22T12:34:42;3.20;;;1.52;;
20669;SDS011;10494;50.868;4.180;2023-07-22T12:37:07;3.80;;;1.65;;
20669;SDS011;10494;50.868;4.180;2023-07-22T12:39:33;3.83;;;1.88;;
20669;SDS011;10494;50.868;4.180;2023-07-22T12:41:58;4.95;;;1.67;;
20669;SDS011;10494;50.868;4.180;2023-07-22T12:44:24;2.65;;;1.88;;
20669;SDS011;10494;50.868;4.180;2023-07-22T12:46:49;4.95;;;1.92;;
20669;SDS011;10494;50.868;4.180;2023-07-22T12:49:15;3.35;;;1.60;;
20669;SDS011;10494;50.868;4.180;2023-07-22T12:51:41;5.50;;;1.90;;
20669;SDS011;10494;50.868;4.180;2023-07-22T12:54:06;5.20;;;1.92;;
20669;SDS011;10494;50.868;4.180;2023-07-22T12:56:32;2.65;;;1.73;;
20669;SDS011;10494;50.868;4.180;2023-07-22T12:58:57;2.55;;;1.90;;
20669;SDS011;10494;50.868;4.180;2023-07-22T13:01:23;3.92;;;2.10;;
20669;SDS011;10494;50.868;4.180;2023-07-22T13:03:48;2.78;;;1.58;;
20669;SDS011;10494;50.868;4.180;2023-07-22T13:06:14;3.15;;;1.67;;
20669;SDS011;10494;50.868;4.180;2023-07-22T13:08:39;7.50;;;1.80;;
20669;SDS011;10494;50.868;4.180;2023-07-22T13:11:05;3.13;;;1.70;;
20669;SDS011;10494;50.868;4.180;2023-07-22T13:13:31;2.83;;;1.50;;
20669;SDS011;10494;50.868;4.180;2023-07-22T13:15:56;5.82;;;2.05;;
20669;SDS011;10494;50.868;4.180;2023-07-22T13:18:22;7.18;;;1.85;;
20669;SDS011;10494;50.868;4.180;2023-07-22T13:20:47;3.58;;;1.90;;
20669;SDS011;10494;50.868;4.180;2023-07-22T13:23:13;4.60;;;2.10;;
20669;SDS011;10494;50.868;4.180;2023-07-22T13:25:39;4.22;;;1.75;;
20669;SDS011;10494;50.868;4.180;2023-07-22T13:28:05;5.60;;;1.40;;
20669;SDS011;10494;50.868;4.180;2023-07-22T13:30:31;3.80;;;1.77;;
20669;SDS011;10494;50.868;4.180;2023-07-22T13:32:57;4.60;;;1.80;;
20669;SDS011;10494;50.868;4.180;2023-07-22T13:35:22;8.65;;;1.92;;
20669;SDS011;10494;50.868;4.180;2023-07-22T13:37:48;3.83;;;2.00;;
20669;SDS011;10494;50.868;4.180;2023-07-22T13:40:13;4.30;;;2.15;;
20669;SDS011;10494;50.868;4.180;2023-07-22T13:42:39;5.30;;;1.80;;
20669;SDS011;10494;50.868;4.180;2023-07-22T13:45:05;5.20;;;1.75;;
20669;SDS011;10494;50.868;4.180;2023-07-22T13:47:31;7.00;;;1.75;;
20669;SDS011;10494;50.868;4.180;2023-07-22T13:49:56;2.78;;;1.65;;
20669;SDS011;10494;50.868;4.180;2023-07-22T13:52:22;4.50;;;1.80;;
20669;SDS011;10494;50.868;4.180;2023-07-22T13:54:48;4.30;;;1.80;;
20669;SDS011;10494;50.868;4.180;2023-07-22T13:57:13;4.93;;;2.00;;
20669;SDS011;10494;50.868;4.180;2023-07-22T13:59:39;4.18;;;1.90;;
20669;SDS011;10494;50.868;4.180;2023-07-22T14:02:04;5.80;;;2.00;;
20669;SDS011;10494;50.868;4.180;2023-07-22T14:04:30;3.80;;;1.80;;
20669;SDS011;10494;50.868;4.180;2023-07-22T14:06:56;4.18;;;1.70;;
20669;SDS011;10494;50.868;4.180;2023-07-22T14:09:22;4.45;;;1.38;;
20669;SDS011;10494;50.868;4.180;2023-07-22T14:11:47;6.68;;;1.70;;
20669;SDS011;10494;50.868;4.180;2023-07-22T14:14:13;3.50;;;1.80;;
20669;SDS011;10494;50.868;4.180;2023-07-22T14:16:38;5.60;;;1.67;;
20669;SDS011;10494;50.868;4.180;2023-07-22T14:19:04;3.72;;;1.98;;
20669;SDS011;10494;50.868;4.180;2023-07-22T14:21:29;3.50;;;1.75;;
20669;SDS011;10494;50.868;4.180;2023-07-22T14:23:55;5.07;;;1.80;;
20669;SDS011;10494;50.868;4.180;2023-07-22T14:26:21;4.43;;;1.77;;
20669;SDS011;10494;50.868;4.180;2023-07-22T14:28:46;3.65;;;1.65;;
20669;SDS011;10494;50.868;4.180;2023-07-22T14:31:12;4.45;;;1.95;;
20669;SDS011;10494;50.868;4.180;2023-07-22T14:33:37;5.82;;;1.80;;
20669;SDS011;10494;50.868;4.180;2023-07-22T14:36:03;6.47;;;2.15;;
20669;SDS011;10494;50.868;4.180;2023-07-22T14:38:29;7.70;;;1.70;;
20669;SDS011;10494;50.868;4.180;2023-07-22T14:40:54;9.57;;;1.92;;
20669;SDS011;10494;50.868;4.180;2023-07-22T14:43:20;3.47;;;1.70;;
20669;SDS011;10494;50.868;4.180;2023-07-22T14:45:45;3.58;;;1.70;;
20669;SDS011;10494;50.868;4.180;2023-07-22T14:48:11;3.17;;;1.70;;
20669;SDS011;10494;50.868;4.180;2023-07-22T14:50:37;3.70;;;1.70;;
20669;SDS011;10494;50.868;4.180;2023-07-22T14:53:02;5.25;;;2.10;;
20669;SDS011;10494;50.868;4.180;2023-07-22T14:55:28;6.05;;;2.00;;